^^
Station Historical Data
Daily Summary for February 12, 2019 Units:  English    Metric   Both
« Previous Day
Next Day »
Daily Weekly Monthly Yearly Custom
  High: Low: Average:
Temperature: -1.0 °F -12.6 °F -6.8 °F
Dew Point: -5.5 °F -16.5 °F -10.9 °F
Humidity: 86% 77% 82%
Wind Speed: 19.0mph 0.0mph 7.5mph
Wind Gust: 23.0mph - -
Wind- - WNW
Pressure: 30.26 in 30.11 in -
Precipitation: 0.26 in    
Historical Graphs
 
 
Tabular Data for February 12, 2019
Time Temperature Dew Point Pressure Wind Wind Speed Wind Gust Humidity Rainfall Rate (Hourly) solar Conditions
00:04 -3.6 °F -7.0 °F 30.11 in NW 6.0 mph 10.0 mph 85% 0.00 in 0.00 W/m2
00:09 -2.3 °F -5.5 °F 30.11 in NW 8.0 mph 11.0 mph 86% 0.00 in 0.00 W/m2
00:14 -2.5 °F -5.9 °F 30.11 in NW 10.0 mph 12.0 mph 85% 0.00 in 0.00 W/m2
00:19 -2.5 °F -5.9 °F 30.11 in NW 10.0 mph 12.0 mph 85% 0.00 in 0.00 W/m2
00:24 -2.5 °F -5.9 °F 30.11 in NW 7.0 mph 11.0 mph 85% 0.00 in 0.00 W/m2
00:29 -2.5 °F -5.9 °F 30.11 in NW 9.0 mph 11.0 mph 85% 0.00 in 0.00 W/m2
00:34 -2.5 °F -5.9 °F 30.11 in NW 8.0 mph 11.0 mph 85% 0.00 in 0.00 W/m2
00:39 -2.7 °F -6.1 °F 30.12 in NW 7.0 mph 11.0 mph 85% 0.00 in 0.00 W/m2
00:44 -3.0 °F -6.6 °F 30.12 in WNW 6.0 mph 10.0 mph 84% 0.00 in 0.00 W/m2
00:49 -3.4 °F -7.0 °F 30.12 in WNW 8.0 mph 11.0 mph 84% 0.00 in 0.00 W/m2
00:54 -3.9 °F -7.5 °F 30.12 in WNW 8.0 mph 11.0 mph 84% 0.00 in 0.00 W/m2
00:59 -5.0 °F -8.8 °F 30.12 in WNW 7.0 mph 10.0 mph 83% 0.00 in 0.00 W/m2
01:04 -5.9 °F -9.7 °F 30.12 in WNW 8.0 mph 8.0 mph 83% 0.00 in 0.00 W/m2
01:09 -6.4 °F -10.0 °F 30.13 in WNW 8.0 mph 9.0 mph 84% 0.00 in 0.00 W/m2
01:14 -6.4 °F -10.0 °F 30.13 in WNW 6.0 mph 9.0 mph 84% 0.00 in 0.00 W/m2
01:19 -6.9 °F -10.5 °F 30.13 in WNW 7.0 mph 9.0 mph 84% 0.00 in 0.00 W/m2
01:24 -7.3 °F -10.9 °F 30.13 in WNW 5.0 mph 8.0 mph 84% 0.00 in 0.00 W/m2
01:29 -7.5 °F -11.1 °F 30.13 in WNW 8.0 mph 9.0 mph 84% 0.00 in 0.00 W/m2
01:34 -7.2 °F -10.5 °F 30.13 in WNW 10.0 mph 11.0 mph 85% 0.00 in 0.00 W/m2
01:39 -6.7 °F -10.0 °F 30.14 in WNW 10.0 mph 12.0 mph 85% 0.00 in 0.00 W/m2
01:44 -6.4 °F -9.7 °F 30.14 in WNW 12.0 mph 15.0 mph 85% 0.00 in 0.00 W/m2
01:49 -6.6 °F -10.2 °F 30.14 in WNW 12.0 mph 15.0 mph 84% 0.00 in 0.00 W/m2
01:54 -6.9 °F -10.5 °F 30.14 in NW 6.0 mph 15.0 mph 84% 0.00 in 0.00 W/m2
01:59 -7.5 °F -11.1 °F 30.14 in NW 5.0 mph 12.0 mph 84% 0.00 in 0.00 W/m2
02:04 -7.8 °F -11.3 °F 30.14 in NW 7.0 mph 8.0 mph 84% 0.00 in 0.00 W/m2
02:09 -7.8 °F -11.3 °F 30.14 in NW 5.0 mph 9.0 mph 84% 0.00 in 0.00 W/m2
02:14 -8.0 °F -11.5 °F 30.14 in WNW 7.0 mph 10.0 mph 84% 0.00 in 0.00 W/m2
02:19 -8.4 °F -11.9 °F 30.14 in WNW 8.0 mph 10.0 mph 84% 0.00 in 0.00 W/m2
02:24 -8.7 °F -12.2 °F 30.14 in WNW 7.0 mph 10.0 mph 84% 0.00 in 0.00 W/m2
02:29 -8.6 °F -12.1 °F 30.15 in WNW 6.0 mph 9.0 mph 84% 0.00 in 0.00 W/m2
02:34 -8.8 °F -12.3 °F 30.15 in WNW 8.0 mph 9.0 mph 84% 0.00 in 0.00 W/m2
02:39 -8.7 °F -12.2 °F 30.15 in WNW 7.0 mph 9.0 mph 84% 0.00 in 0.00 W/m2
02:44 -9.0 °F -12.8 °F 30.15 in NW 6.0 mph 9.0 mph 83% 0.00 in 0.00 W/m2
02:49 -8.3 °F -11.8 °F 30.15 in NW 8.0 mph 9.0 mph 84% 0.00 in 0.00 W/m2
02:54 -7.7 °F -11.2 °F 30.15 in NW 7.0 mph 10.0 mph 84% 0.00 in 0.00 W/m2
02:59 -7.6 °F -11.1 °F 30.15 in NW 7.0 mph 10.0 mph 84% 0.00 in 0.00 W/m2
03:04 -7.2 °F -10.8 °F 30.15 in WNW 8.0 mph 9.0 mph 84% 0.00 in 0.00 W/m2
03:09 -7.0 °F -10.6 °F 30.16 in WNW 5.0 mph 9.0 mph 84% 0.00 in 0.00 W/m2
03:14 -7.2 °F -10.8 °F 30.16 in WNW 5.0 mph 8.0 mph 84% 0.00 in 0.00 W/m2
03:19 -7.6 °F -11.1 °F 30.16 in WNW 6.0 mph 7.0 mph 84% 0.00 in 0.00 W/m2
03:24 -8.3 °F -12.1 °F 30.16 in WNW 7.0 mph 8.0 mph 83% 0.00 in 0.00 W/m2
03:29 -8.2 °F -12.0 °F 30.16 in WNW 7.0 mph 9.0 mph 83% 0.00 in 0.00 W/m2
03:34 -8.6 °F -12.4 °F 30.16 in WNW 6.0 mph 9.0 mph 83% 0.00 in 0.00 W/m2
03:39 -9.0 °F -12.8 °F 30.16 in West 7.0 mph 8.0 mph 83% 0.00 in 0.00 W/m2
03:44 -9.6 °F -13.4 °F 30.16 in West 7.0 mph 8.0 mph 83% 0.00 in 0.00 W/m2
03:49 -10.0 °F -13.7 °F 30.17 in West 7.0 mph 8.0 mph 83% 0.00 in 0.00 W/m2
03:54 -9.9 °F -13.6 °F 30.17 in West 6.0 mph 10.0 mph 83% 0.00 in 0.00 W/m2
03:59 -9.7 °F -13.5 °F 30.17 in WNW 8.0 mph 10.0 mph 83% 0.00 in 0.00 W/m2
04:04 -9.5 °F -13.3 °F 30.17 in WNW 7.0 mph 9.0 mph 83% 0.00 in 0.00 W/m2
04:09 -9.6 °F -13.4 °F 30.18 in WNW 8.0 mph 9.0 mph 83% 0.00 in 0.00 W/m2
04:14 -9.7 °F -13.5 °F 30.18 in WNW 9.0 mph 10.0 mph 83% 0.00 in 0.00 W/m2
04:19 -9.5 °F -13.3 °F 30.18 in WNW 7.0 mph 11.0 mph 83% 0.00 in 0.00 W/m2
04:24 -9.5 °F -13.3 °F 30.18 in WNW 8.0 mph 11.0 mph 83% 0.00 in 0.00 W/m2
04:29 -9.5 °F -13.3 °F 30.18 in WNW 9.0 mph 11.0 mph 83% 0.00 in 0.00 W/m2
04:34 -9.7 °F -13.5 °F 30.18 in West 8.0 mph 11.0 mph 83% 0.00 in 0.00 W/m2
04:39 -9.9 °F -13.6 °F 30.19 in West 9.0 mph 10.0 mph 83% 0.00 in 0.00 W/m2
04:44 -10.2 °F -13.9 °F 30.19 in West 9.0 mph 10.0 mph 83% 0.00 in 0.00 W/m2
04:49 -10.4 °F -14.1 °F 30.19 in West 7.0 mph 10.0 mph 83% 0.00 in 0.00 W/m2
04:54 -10.4 °F -14.1 °F 30.19 in West 6.0 mph 10.0 mph 83% 0.00 in 0.00 W/m2
04:59 -10.7 °F -14.4 °F 30.19 in WNW 8.0 mph 10.0 mph 83% 0.00 in 0.00 W/m2
05:04 -10.9 °F -14.6 °F 30.19 in West 7.0 mph 9.0 mph 83% 0.00 in 0.00 W/m2
05:09 -11.2 °F -15.2 °F 30.19 in West 7.0 mph 9.0 mph 82% 0.00 in 0.00 W/m2
05:14 -11.1 °F -14.8 °F 30.20 in West 7.0 mph 9.0 mph 83% 0.00 in 0.00 W/m2
05:19 -11.2 °F -14.9 °F 30.19 in West 5.0 mph 8.0 mph 83% 0.00 in 0.00 W/m2
05:24 -11.2 °F -14.9 °F 30.19 in West 5.0 mph 8.0 mph 83% 0.00 in 0.00 W/m2
05:29 -11.3 °F -15.0 °F 30.19 in West 4.0 mph 7.0 mph 83% 0.00 in 0.00 W/m2
05:34 -11.8 °F -15.8 °F 30.19 in WSW 6.0 mph 8.0 mph 82% 0.00 in 0.00 W/m2
05:39 -12.4 °F -16.3 °F 30.19 in West 7.0 mph 8.0 mph 82% 0.00 in 0.00 W/m2
05:44 -12.3 °F -16.2 °F 30.20 in West 6.0 mph 8.0 mph 82% 0.00 in 0.00 W/m2
05:49 -12.6 °F -16.5 °F 30.20 in West 5.0 mph 8.0 mph 82% 0.00 in 0.00 W/m2
05:54 -12.4 °F -16.3 °F 30.19 in West 6.0 mph 7.0 mph 82% 0.00 in 0.00 W/m2
05:59 -12.2 °F -15.9 °F 30.19 in West 6.0 mph 7.0 mph 83% 0.00 in 0.00 W/m2
06:04 -12.1 °F -15.8 °F 30.19 in West 6.0 mph 8.0 mph 83% 0.00 in 0.00 W/m2
06:09 -12.0 °F -15.9 °F 30.20 in West 6.0 mph 8.0 mph 82% 0.00 in 0.00 W/m2
06:14 -11.7 °F -15.4 °F 30.19 in West 6.0 mph 8.0 mph 83% 0.00 in 0.00 W/m2
06:19 -11.5 °F -15.2 °F 30.19 in West 7.0 mph 9.0 mph 83% 0.00 in 0.00 W/m2
06:24 -11.3 °F -15.0 °F 30.19 in West 8.0 mph 9.0 mph 83% 0.00 in 0.00 W/m2
06:29 -11.0 °F -14.7 °F 30.19 in West 6.0 mph 9.0 mph 83% 0.00 in 0.00 W/m2
06:34 -10.7 °F -14.4 °F 30.19 in West 7.0 mph 9.0 mph 83% 0.00 in 0.00 W/m2
06:39 -10.5 °F -14.2 °F 30.19 in West 7.0 mph 10.0 mph 83% 0.00 in 0.00 W/m2
06:44 -10.5 °F -14.2 °F 30.19 in WNW 11.0 mph 11.0 mph 83% 0.00 in 0.00 W/m2
06:49 -10.6 °F -14.3 °F 30.20 in West 9.0 mph 11.0 mph 83% 0.00 in 0.00 W/m2
06:54 -11.0 °F -15.0 °F 30.20 in WNW 7.0 mph 11.0 mph 82% 0.00 in 0.00 W/m2
06:59 -11.5 °F -15.5 °F 30.19 in WNW 7.0 mph 10.0 mph 82% 0.00 in 0.00 W/m2
07:04 -11.2 °F -14.9 °F 30.19 in WNW 8.0 mph 10.0 mph 83% 0.00 in 0.00 W/m2
07:09 -10.8 °F -14.5 °F 30.20 in WNW 8.0 mph 12.0 mph 83% 0.00 in 0.00 W/m2
07:14 -10.6 °F -14.3 °F 30.20 in West 10.0 mph 12.0 mph 83% 0.00 in 0.00 W/m2
07:19 -10.7 °F -14.4 °F 30.20 in West 10.0 mph 12.0 mph 83% 0.00 in 0.00 W/m2
07:24 -10.7 °F -14.4 °F 30.20 in WNW 8.0 mph 11.0 mph 83% 0.00 in 0.00 W/m2
07:29 -10.9 °F -14.6 °F 30.20 in WNW 9.0 mph 11.0 mph 83% 0.00 in 0.00 W/m2
07:34 -11.5 °F -15.5 °F 30.20 in WNW 8.0 mph 11.0 mph 82% 0.00 in 0.00 W/m2
07:39 -11.9 °F -15.8 °F 30.21 in WNW 11.0 mph 11.0 mph 82% 0.00 in 0.00 W/m2
07:44 -11.8 °F -15.8 °F 30.21 in WNW 10.0 mph 11.0 mph 82% 0.00 in 0.00 W/m2
07:49 -11.8 °F -15.8 °F 30.21 in WNW 10.0 mph 12.0 mph 82% 0.00 in 0.00 W/m2
07:54 -11.5 °F -15.2 °F 30.21 in NW 9.0 mph 12.0 mph 83% 0.00 in 0.00 W/m2
07:59 -11.6 °F -15.6 °F 30.22 in WNW 11.0 mph 12.0 mph 82% 0.00 in 5.00 W/m2
08:04 -12.0 °F -15.9 °F 30.22 in West 8.0 mph 12.0 mph 82% 0.00 in 7.00 W/m2
08:09 -11.9 °F -15.8 °F 30.22 in WNW 9.0 mph 12.0 mph 82% 0.00 in 9.00 W/m2
08:14 -11.5 °F -15.2 °F 30.23 in West 12.0 mph 14.0 mph 83% 0.00 in 11.00 W/m2
08:19 -10.7 °F -14.4 °F 30.22 in WNW 9.0 mph 17.0 mph 83% 0.00 in 12.00 W/m2
08:24 -10.2 °F -13.9 °F 30.22 in WNW 16.0 mph 17.0 mph 83% 0.00 in 14.00 W/m2
08:29 -10.2 °F -14.2 °F 30.22 in WNW 13.0 mph 18.0 mph 82% 0.00 in 18.00 W/m2
08:34 -10.1 °F -14.1 °F 30.22 in WNW 19.0 mph 20.0 mph 82% 0.00 in 23.00 W/m2
08:39 -10.1 °F -14.1 °F 30.22 in WNW 16.0 mph 21.0 mph 82% 0.00 in 25.00 W/m2
08:44 -9.9 °F -13.9 °F 30.22 in NW 17.0 mph 23.0 mph 82% 0.00 in 26.00 W/m2
08:49 -9.6 °F -13.4 °F 30.22 in WNW 19.0 mph 23.0 mph 83% 0.00 in 28.00 W/m2
08:54 -9.7 °F -13.7 °F 30.23 in WNW 13.0 mph 23.0 mph 82% 0.00 in 32.00 W/m2
08:59 -9.8 °F -13.8 °F 30.23 in NW 14.0 mph 21.0 mph 82% 0.00 in 33.00 W/m2
09:04 -9.7 °F -13.7 °F 30.23 in WNW 13.0 mph 20.0 mph 82% 0.00 in 33.00 W/m2
09:09 -9.8 °F -13.8 °F 30.23 in WNW 16.0 mph 19.0 mph 82% 0.00 in 37.00 W/m2
09:14 -9.9 °F -13.9 °F 30.24 in NW 14.0 mph 19.0 mph 82% 0.00 in 39.00 W/m2
09:19 -9.7 °F -13.7 °F 30.24 in WNW 16.0 mph 17.0 mph 82% 0.00 in 42.00 W/m2
09:24 -9.5 °F -13.5 °F 30.24 in NW 13.0 mph 18.0 mph 82% 0.00 in 47.00 W/m2
09:29 -9.2 °F -13.2 °F 30.24 in NW 14.0 mph 18.0 mph 82% 0.00 in 54.00 W/m2
09:34 -9.1 °F -13.1 °F 30.23 in NW 15.0 mph 18.0 mph 82% 0.00 in 76.00 W/m2
09:39 -9.0 °F -13.0 °F 30.24 in WNW 16.0 mph 18.0 mph 82% 0.00 in 107.00 W/m2
09:44 -8.9 °F -12.9 °F 30.23 in NW 13.0 mph 18.0 mph 82% 0.00 in 156.00 W/m2
09:49 -8.6 °F -12.6 °F 30.23 in WNW 14.0 mph 18.0 mph 82% 0.00 in 200.00 W/m2
09:54 -8.6 °F -12.6 °F 30.23 in WNW 12.0 mph 17.0 mph 82% 0.00 in 237.00 W/m2
09:59 -8.5 °F -12.5 °F 30.23 in WNW 14.0 mph 17.0 mph 82% 0.00 in 269.00 W/m2
10:04 -8.3 °F -12.3 °F 30.23 in WNW 10.0 mph 17.0 mph 82% 0.00 in 297.00 W/m2
10:09 -8.0 °F -11.8 °F 30.23 in WNW 11.0 mph 18.0 mph 83% 0.00 in 322.00 W/m2
10:14 -7.9 °F -11.9 °F 30.24 in NW 8.0 mph 19.0 mph 82% 0.00 in 329.00 W/m2
10:19 -7.8 °F -11.8 °F 30.24 in WNW 14.0 mph 19.0 mph 82% 0.00 in 346.00 W/m2
10:24 -7.6 °F -11.6 °F 30.24 in WNW 15.0 mph 18.0 mph 82% 0.00 in 359.00 W/m2
10:29 -7.5 °F -11.5 °F 30.24 in WNW 10.0 mph 18.0 mph 82% 0.00 in 373.00 W/m2
10:34 -7.3 °F -11.3 °F 30.24 in NW 11.0 mph 18.0 mph 82% 0.00 in 388.00 W/m2
10:39 -7.2 °F -11.2 °F 30.24 in WNW 11.0 mph 18.0 mph 82% 0.00 in 401.00 W/m2
10:44 -7.1 °F -11.1 °F 30.24 in NW 9.0 mph 15.0 mph 82% 0.00 in 415.00 W/m2
10:49 -6.9 °F -10.9 °F 30.24 in NW 7.0 mph 14.0 mph 82% 0.00 in 425.00 W/m2
10:54 -6.6 °F -10.7 °F 30.24 in WNW 10.0 mph 13.0 mph 82% 0.00 in 436.00 W/m2
10:59 -6.3 °F -10.4 °F 30.24 in WNW 12.0 mph 14.0 mph 82% 0.00 in 446.00 W/m2
11:04 -5.9 °F -10.0 °F 30.24 in NW 11.0 mph 14.0 mph 82% 0.00 in 455.00 W/m2
11:09 -5.5 °F -9.6 °F 30.24 in NW 12.0 mph 14.0 mph 82% 0.00 in 468.00 W/m2
11:14 -5.4 °F -9.5 °F 30.24 in WNW 11.0 mph 14.0 mph 82% 0.00 in 478.00 W/m2
11:19 -5.3 °F -9.4 °F 30.24 in NW 9.0 mph 14.0 mph 82% 0.00 in 485.00 W/m2
11:24 -5.1 °F -9.2 °F 30.24 in WNW 12.0 mph 14.0 mph 82% 0.00 in 492.00 W/m2
11:29 -4.9 °F -9.0 °F 30.24 in WNW 5.0 mph 14.0 mph 82% 0.00 in 503.00 W/m2
11:34 -4.8 °F -8.9 °F 30.25 in WNW 6.0 mph 13.0 mph 82% 0.00 in 512.00 W/m2
11:39 -4.6 °F -8.7 °F 30.25 in WNW 5.0 mph 14.0 mph 82% 0.00 in 520.00 W/m2
11:44 -4.5 °F -8.8 °F 30.25 in NW 12.0 mph 15.0 mph 81% 0.00 in 529.00 W/m2
11:49 -4.3 °F -8.7 °F 30.25 in WNW 9.0 mph 18.0 mph 81% 0.00 in 496.00 W/m2
11:54 -4.3 °F -8.7 °F 30.25 in WNW 18.0 mph 18.0 mph 81% 0.00 in 497.00 W/m2
11:59 -4.0 °F -8.4 °F 30.25 in WNW 15.0 mph 18.0 mph 81% 0.00 in 503.00 W/m2
12:04 -3.7 °F -8.1 °F 30.25 in NW 10.0 mph 18.0 mph 81% 0.00 in 504.00 W/m2
12:09 -3.6 °F -8.0 °F 30.25 in WNW 12.0 mph 19.0 mph 81% 0.00 in 513.00 W/m2
12:14 -3.5 °F -7.9 °F 30.25 in WNW 16.0 mph 19.0 mph 81% 0.00 in 517.00 W/m2
12:19 -3.4 °F -7.8 °F 30.25 in WNW 10.0 mph 18.0 mph 81% 0.00 in 522.00 W/m2
12:24 -3.3 °F -7.7 °F 30.25 in WNW 13.0 mph 18.0 mph 81% 0.00 in 526.00 W/m2
12:29 -3.0 °F -7.4 °F 30.26 in WNW 11.0 mph 18.0 mph 81% 0.00 in 527.00 W/m2
12:34 -2.9 °F -7.3 °F 30.26 in West 10.0 mph 17.0 mph 81% 0.00 in 529.00 W/m2
12:39 -2.7 °F -7.1 °F 30.26 in WNW 9.0 mph 17.0 mph 81% 0.00 in 531.00 W/m2
12:44 -3.2 °F -7.8 °F 30.26 in NW 13.0 mph 16.0 mph 80% 0.00 in 533.00 W/m2
12:49 -3.5 °F -7.9 °F 30.25 in West 11.0 mph 16.0 mph 81% 0.00 in 533.00 W/m2
12:54 -3.6 °F -8.0 °F 30.25 in West 13.0 mph 17.0 mph 81% 0.00 in 533.00 W/m2
12:59 -3.4 °F -7.8 °F 30.25 in WNW 9.0 mph 17.0 mph 81% 0.00 in 534.00 W/m2
13:04 -3.2 °F -7.6 °F 30.25 in WNW 12.0 mph 16.0 mph 81% 0.00 in 533.00 W/m2
13:09 -3.1 °F -7.5 °F 30.25 in WNW 14.0 mph 16.0 mph 81% 0.00 in 534.00 W/m2
13:14 -3.1 °F -7.7 °F 30.24 in WNW 14.0 mph 18.0 mph 80% 0.00 in 533.00 W/m2
13:19 -3.1 °F -7.7 °F 30.24 in WNW 9.0 mph 18.0 mph 80% 0.00 in 531.00 W/m2
13:24 -3.2 °F -7.8 °F 30.24 in WNW 12.0 mph 18.0 mph 80% 0.00 in 531.00 W/m2
13:29 -3.0 °F -7.4 °F 30.24 in WNW 13.0 mph 17.0 mph 81% 0.00 in 527.00 W/m2
13:34 -2.8 °F -7.2 °F 30.24 in WNW 12.0 mph 16.0 mph 81% 0.00 in 524.00 W/m2
13:39 -2.6 °F -7.0 °F 30.24 in West 10.0 mph 16.0 mph 81% 0.00 in 520.00 W/m2
13:44 -2.6 °F -7.2 °F 30.23 in West 14.0 mph 15.0 mph 80% 0.00 in 519.00 W/m2
13:49 -2.6 °F -7.2 °F 30.24 in West 13.0 mph 17.0 mph 80% 0.00 in 515.00 W/m2
13:54 -2.4 °F -6.8 °F 30.23 in WNW 12.0 mph 17.0 mph 81% 0.00 in 510.00 W/m2
13:59 -2.3 °F -7.0 °F 30.23 in WNW 12.0 mph 16.0 mph 80% 0.00 in 504.00 W/m2
14:04 -2.2 °F -6.9 °F 30.23 in West 13.0 mph 16.0 mph 80% 0.00 in 501.00 W/m2
14:09 -2.2 °F -6.9 °F 30.23 in WNW 15.0 mph 16.0 mph 80% 0.00 in 494.00 W/m2
14:14 -2.2 °F -6.9 °F 30.23 in West 12.0 mph 16.0 mph 80% 0.00 in 490.00 W/m2
14:19 -2.1 °F -6.8 °F 30.23 in WNW 6.0 mph 16.0 mph 80% 0.00 in 483.00 W/m2
14:24 -2.1 °F -6.8 °F 30.23 in WNW 12.0 mph 16.0 mph 80% 0.00 in 476.00 W/m2
14:29 -1.9 °F -6.6 °F 30.23 in WNW 8.0 mph 16.0 mph 80% 0.00 in 471.00 W/m2
14:34 -1.8 °F -6.5 °F 30.23 in WNW 10.0 mph 16.0 mph 80% 0.00 in 464.00 W/m2
14:39 -1.9 °F -6.8 °F 30.22 in WNW 9.0 mph 14.0 mph 79% 0.00 in 459.00 W/m2
14:44 -1.6 °F -6.3 °F 30.22 in WNW 10.0 mph 15.0 mph 80% 0.00 in 452.00 W/m2
14:49 -1.5 °F -6.2 °F 30.22 in WNW 12.0 mph 15.0 mph 80% 0.00 in 443.00 W/m2
14:54 -1.5 °F -6.4 °F 30.22 in NW 9.0 mph 14.0 mph 79% 0.00 in 434.00 W/m2
14:59 -1.3 °F -6.2 °F 30.22 in WNW 10.0 mph 14.0 mph 79% 0.00 in 425.00 W/m2
15:04 -1.2 °F -6.1 °F 30.22 in WNW 8.0 mph 13.0 mph 79% 0.00 in 415.00 W/m2
15:09 -1.1 °F -6.0 °F 30.23 in WNW 8.0 mph 13.0 mph 79% 0.00 in 404.00 W/m2
15:14 -1.0 °F -5.9 °F 30.23 in WNW 12.0 mph 13.0 mph 79% 0.00 in 396.00 W/m2
15:19 -1.0 °F -6.2 °F 30.23 in West 11.0 mph 14.0 mph 78% 0.00 in 387.00 W/m2
15:24 -1.2 °F -6.1 °F 30.23 in WNW 12.0 mph 15.0 mph 79% 0.00 in 376.00 W/m2
15:29 -1.3 °F -6.2 °F 30.23 in WNW 11.0 mph 15.0 mph 79% 0.00 in 366.00 W/m2
15:34 -1.3 °F -6.2 °F 30.23 in WNW 8.0 mph 14.0 mph 79% 0.00 in 353.00 W/m2
15:39 -1.1 °F -6.0 °F 30.23 in WNW 10.0 mph 12.0 mph 79% 0.00 in 343.00 W/m2
15:44 -1.3 °F -6.5 °F 30.23 in WNW 9.0 mph 13.0 mph 78% 0.00 in 330.00 W/m2
15:49 -1.3 °F -6.2 °F 30.22 in WNW 10.0 mph 13.0 mph 79% 0.00 in 320.00 W/m2
15:54 -1.2 °F -6.1 °F 30.22 in NW 8.0 mph 12.0 mph 79% 0.00 in 308.00 W/m2
15:59 -1.2 °F -6.1 °F 30.22 in WNW 9.0 mph 12.0 mph 79% 0.00 in 294.00 W/m2
16:04 -1.2 °F -6.4 °F 30.22 in WNW 5.0 mph 12.0 mph 78% 0.00 in 279.00 W/m2
16:09 -1.2 °F -6.4 °F 30.22 in WNW 8.0 mph 12.0 mph 78% 0.00 in 264.00 W/m2
16:14 -1.2 °F -6.4 °F 30.21 in NW 11.0 mph 12.0 mph 78% 0.00 in 246.00 W/m2
16:19 -1.1 °F -6.3 °F 30.22 in NW 7.0 mph 12.0 mph 78% 0.00 in 230.00 W/m2
16:24 -1.0 °F -6.2 °F 30.22 in WNW 6.0 mph 12.0 mph 78% 0.00 in 213.00 W/m2
16:29 -1.1 °F -6.6 °F 30.23 in WNW 7.0 mph 10.0 mph 77% 0.00 in 197.00 W/m2
16:34 -1.2 °F -6.7 °F 30.23 in West 5.0 mph 10.0 mph 77% 0.00 in 179.00 W/m2
16:39 -1.4 °F -6.9 °F 30.23 in West 7.0 mph 10.0 mph 77% 0.00 in 163.00 W/m2
16:44 -1.7 °F -6.9 °F 30.23 in WNW 10.0 mph 13.0 mph 78% 0.00 in 146.00 W/m2
16:49 -1.7 °F -6.9 °F 30.23 in West 8.0 mph 13.0 mph 78% 0.00 in 130.00 W/m2
16:54 -1.8 °F -7.0 °F 30.23 in WNW 8.0 mph 14.0 mph 78% 0.00 in 114.00 W/m2
16:59 -1.8 °F -7.0 °F 30.22 in West 9.0 mph 14.0 mph 78% 0.00 in 98.00 W/m2
17:04 -1.9 °F -7.1 °F 30.22 in WNW 6.0 mph 13.0 mph 78% 0.00 in 86.00 W/m2
17:09 -2.0 °F -7.4 °F 30.22 in West 6.0 mph 11.0 mph 77% 0.00 in 74.00 W/m2
17:14 -2.2 °F -7.6 °F 30.22 in WNW 10.0 mph 10.0 mph 77% 0.00 in 60.00 W/m2
17:19 -2.3 °F -7.7 °F 30.23 in WNW 8.0 mph 10.0 mph 77% 0.00 in 49.00 W/m2
17:24 -2.7 °F -8.1 °F 30.23 in WNW 5.0 mph 10.0 mph 77% 0.00 in 37.00 W/m2
17:29 -3.0 °F -8.2 °F 30.23 in WNW 7.0 mph 10.0 mph 78% 0.00 in 28.00 W/m2
17:34 -3.1 °F -8.3 °F 30.23 in WNW 4.0 mph 9.0 mph 78% 0.00 in 23.00 W/m2
17:39 -3.3 °F -8.4 °F 30.23 in WNW 5.0 mph 8.0 mph 78% 0.00 in 19.00 W/m2
17:44 -3.8 °F -8.9 °F 30.23 in West 5.0 mph 6.0 mph 78% 0.00 in 14.00 W/m2
17:49 -4.2 °F -9.3 °F 30.22 in NW 4.0 mph 6.0 mph 78% 0.00 in 11.00 W/m2
17:54 -4.1 °F -9.0 °F 30.22 in WNW 5.0 mph 7.0 mph 79% 0.00 in 9.00 W/m2
17:59 -4.2 °F -9.1 °F 30.22 in West 5.0 mph 7.0 mph 79% 0.00 in 5.00 W/m2
18:04 -4.6 °F -9.7 °F 30.22 in NW 3.0 mph 7.0 mph 78% 0.26 in 0.00 W/m2
18:09 -4.8 °F -9.7 °F 30.22 in WNW 2.0 mph 6.0 mph 79% 0.26 in 0.00 W/m2
18:14 -5.1 °F -9.9 °F 30.22 in WNW 2.0 mph 5.0 mph 79% 0.26 in 0.00 W/m2
18:19 -5.4 °F -10.2 °F 30.22 in NNW 3.0 mph 5.0 mph 79% 0.26 in 0.00 W/m2
18:24 -5.6 °F -10.4 °F 30.23 in NNW 3.0 mph 4.0 mph 79% 0.26 in 0.00 W/m2
18:29 -5.6 °F -10.2 °F 30.23 in NW 4.0 mph 5.0 mph 80% 0.26 in 0.00 W/m2
18:34 -5.9 °F -10.7 °F 30.23 in NW 3.0 mph 5.0 mph 79% 0.26 in 0.00 W/m2
18:39 -6.1 °F -10.9 °F 30.23 in NW 2.0 mph 5.0 mph 79% 0.26 in 0.00 W/m2
18:44 -6.0 °F -10.6 °F 30.23 in NW 4.0 mph 4.0 mph 80% 0.26 in 0.00 W/m2
18:49 -6.2 °F -10.8 °F 30.23 in NW 2.0 mph 4.0 mph 80% 0.26 in 0.00 W/m2
18:54 -6.4 °F -11.0 °F 30.22 in NW 3.0 mph 4.0 mph 80% 0.26 in 0.00 W/m2
18:59 -6.3 °F -10.9 °F 30.22 in NW 2.0 mph 4.0 mph 80% 0.26 in 0.00 W/m2
19:04 -6.3 °F -10.6 °F 30.22 in NW 5.0 mph 6.0 mph 81% 0.00 in 0.00 W/m2
19:09 -6.1 °F -10.4 °F 30.22 in WNW 3.0 mph 6.0 mph 81% 0.00 in 0.00 W/m2
19:14 -6.2 °F -10.5 °F 30.22 in NW 7.0 mph 7.0 mph 81% 0.00 in 0.00 W/m2
19:19 -6.4 °F -11.0 °F 30.21 in NW 6.0 mph 7.0 mph 80% 0.00 in 0.00 W/m2
19:24 -6.8 °F -11.4 °F 30.21 in NW 3.0 mph 8.0 mph 80% 0.00 in 0.00 W/m2
19:29 -7.0 °F -11.5 °F 30.21 in NNW 6.0 mph 8.0 mph 80% 0.00 in 0.00 W/m2
19:34 -7.2 °F -11.7 °F 30.22 in NNW 1.0 mph 7.0 mph 80% 0.00 in 0.00 W/m2
19:39 -7.3 °F -11.8 °F 30.22 in NNW 2.0 mph 6.0 mph 80% 0.00 in 0.00 W/m2
19:44 -7.3 °F -11.6 °F 30.22 in NNW 2.0 mph 4.0 mph 81% 0.00 in 0.00 W/m2
19:49 -7.6 °F -11.9 °F 30.22 in NNW 4.0 mph 5.0 mph 81% 0.00 in 0.00 W/m2
19:54 -8.2 °F -12.7 °F 30.22 in NNW 1.0 mph 5.0 mph 80% 0.00 in 0.00 W/m2
19:59 -8.3 °F -12.6 °F 30.21 in Calm   5.0 mph 81% 0.00 in 0.00 W/m2
20:04 -8.1 °F -12.1 °F 30.21 in Calm   2.0 mph 82% 0.00 in 0.00 W/m2
20:09 -7.9 °F -11.9 °F 30.21 in Calm   1.0 mph 82% 0.00 in 0.00 W/m2
20:14 -7.9 °F -11.9 °F 30.21 in Calm     82% 0.00 in 0.00 W/m2
20:19 -7.7 °F -11.7 °F 30.21 in NNW 2.0 mph 2.0 mph 82% 0.00 in 0.00 W/m2
20:24 -7.9 °F -11.9 °F 30.20 in North 4.0 mph 5.0 mph 82% 0.00 in 0.00 W/m2
20:29 -7.9 °F -11.9 °F 30.20 in North 2.0 mph 5.0 mph 82% 0.00 in 0.00 W/m2
20:34 -7.8 °F -11.8 °F 30.20 in North 3.0 mph 4.0 mph 82% 0.00 in 0.00 W/m2
20:39 -7.7 °F -11.7 °F 30.20 in North 1.0 mph 3.0 mph 82% 0.00 in 0.00 W/m2
20:44 -8.0 °F -12.0 °F 30.20 in Calm   3.0 mph 82% 0.00 in 0.00 W/m2
20:49 -8.2 °F -12.2 °F 30.20 in North 1.0 mph 2.0 mph 82% 0.00 in 0.00 W/m2
20:54 -8.1 °F -12.1 °F 30.20 in Calm   2.0 mph 82% 0.00 in 0.00 W/m2
20:59 -8.4 °F -12.4 °F 30.20 in North 1.0 mph 3.0 mph 82% 0.00 in 0.00 W/m2
21:04 -8.7 °F -12.7 °F 30.19 in Calm   3.0 mph 82% 0.00 in 0.00 W/m2
21:09 -8.7 °F -12.7 °F 30.19 in North 1.0 mph 2.0 mph 82% 0.00 in 0.00 W/m2
21:14 -8.8 °F -12.8 °F 30.19 in North 1.0 mph 2.0 mph 82% 0.00 in 0.00 W/m2
21:19 -8.8 °F -12.8 °F 30.19 in North 1.0 mph 2.0 mph 82% 0.00 in 0.00 W/m2
21:24 -8.6 °F -12.4 °F 30.19 in North 1.0 mph 2.0 mph 83% 0.00 in 0.00 W/m2
21:29 -8.5 °F -12.3 °F 30.19 in North 2.0 mph 3.0 mph 83% 0.00 in 0.00 W/m2
21:34 -8.3 °F -12.1 °F 30.19 in North 2.0 mph 3.0 mph 83% 0.00 in 0.00 W/m2
21:39 -8.3 °F -12.1 °F 30.19 in North 3.0 mph 3.0 mph 83% 0.00 in 0.00 W/m2
21:44 -8.3 °F -12.1 °F 30.20 in SW 3.0 mph 4.0 mph 83% 0.00 in 0.00 W/m2
21:49 -8.4 °F -12.2 °F 30.20 in SW 3.0 mph 4.0 mph 83% 0.00 in 0.00 W/m2
21:54 -8.5 °F -12.3 °F 30.20 in SW 3.0 mph 4.0 mph 83% 0.00 in 0.00 W/m2
21:59 -8.6 °F -12.6 °F 30.20 in SW 3.0 mph 4.0 mph 82% 0.00 in 0.00 W/m2
22:04 -8.8 °F -12.8 °F 30.20 in SW 3.0 mph 3.0 mph 82% 0.00 in 0.00 W/m2
22:09 -8.8 °F -12.6 °F 30.20 in SW 3.0 mph 4.0 mph 83% 0.00 in 0.00 W/m2
22:14 -8.9 °F -12.7 °F 30.19 in SW 3.0 mph 5.0 mph 83% 0.00 in 0.00 W/m2
22:19 -9.1 °F -12.9 °F 30.19 in SW 4.0 mph 5.0 mph 83% 0.00 in 0.00 W/m2
22:24 -9.1 °F -12.9 °F 30.19 in Calm   5.0 mph 83% 0.00 in 0.00 W/m2
22:29 -9.2 °F -13.0 °F 30.18 in SW 3.0 mph 4.0 mph 83% 0.00 in 0.00 W/m2
22:34 -9.2 °F -13.0 °F 30.19 in SW 3.0 mph 5.0 mph 83% 0.00 in 0.00 W/m2
22:39 -9.1 °F -12.9 °F 30.18 in SW 3.0 mph 5.0 mph 83% 0.00 in 0.00 W/m2
22:44 -9.1 °F -12.9 °F 30.18 in Calm   5.0 mph 83% 0.00 in 0.00 W/m2
22:49 -9.0 °F -12.8 °F 30.18 in SW 3.0 mph 4.0 mph 83% 0.00 in 0.00 W/m2
22:54 -8.9 °F -12.7 °F 30.19 in SW 4.0 mph 4.0 mph 83% 0.00 in 0.00 W/m2
22:59 -8.8 °F -12.6 °F 30.18 in SW 1.0 mph 4.0 mph 83% 0.00 in 0.00 W/m2
23:04 -8.6 °F -12.1 °F 30.18 in SW 2.0 mph 4.0 mph 84% 0.00 in 0.00 W/m2
23:09 -8.6 °F -12.4 °F 30.18 in SSW 2.0 mph 3.0 mph 83% 0.00 in 0.00 W/m2
23:14 -8.7 °F -12.5 °F 30.18 in South 1.0 mph 4.0 mph 83% 0.00 in 0.00 W/m2
23:19 -8.9 °F -12.7 °F 30.18 in South 2.0 mph 4.0 mph 83% 0.00 in 0.00 W/m2
23:24 -8.8 °F -12.6 °F 30.18 in South 2.0 mph 4.0 mph 83% 0.00 in 0.00 W/m2
23:29 -8.8 °F -12.6 °F 30.18 in South 2.0 mph 4.0 mph 83% 0.00 in 0.00 W/m2
23:34 -8.6 °F -12.4 °F 30.17 in Calm   4.0 mph 83% 0.00 in 0.00 W/m2
23:39 -8.4 °F -11.9 °F 30.17 in Calm   2.0 mph 84% 0.00 in 0.00 W/m2
23:44 -8.3 °F -12.1 °F 30.17 in South 2.0 mph 2.0 mph 83% 0.00 in 0.00 W/m2
23:49 -8.3 °F -12.1 °F 30.17 in Calm   2.0 mph 83% 0.00 in 0.00 W/m2
23:54 -8.2 °F -12.0 °F 30.16 in Calm   2.0 mph 83% 0.00 in 0.00 W/m2
23:59 -8.1 °F -11.9 °F 30.16 in Calm   1.0 mph 83% 0.00 in 0.00 W/m2
Bismarck, North Dakota, USA
Compliments of Weather Underground - 4 mb